Laredo International Airport
KLRD : now visible

Airfield :











YOU CAN JOIN US ON...

 
LOGIN :

Register | Disclaimer

   EN    FR    IT 

 









Legend :    VFR   Marginal VFR   IFR   Intensive IFR   Very Intensive IFR
Visi :
Ceiling :
>= 8 km
>= 3000ft
5 to 8 km
1000 to 3000 ft
1500m to 5 km
500 to 1000 ft
800 to 1500m
200 to 500 ft
< 800m
< 200 ft
Symbols :   Thunderstorms  Fog  Heavy snow  Heavy precipitations  Wind > 20 kt






- Airport Elevation : 508 ft
- IATA code : LRD


KLRD - Laredo International

CURRENT METAR :
  • 172056Z 16010KT 10SM CLR 32/18 A2973 RMK AO2 SLP065 T03170178 56038

EXPIRED METARs :
  • 171956Z 15011G15KT 10SM CLR 31/18 A2976 RMK AO2 SLP073 T03110183
  • 171856Z 18008G16KT 10SM CLR 29/18 A2981 RMK AO2 SLP090 T02940183

TAF KLRD
Valid from the 17 at 18:00 until the 18 at 18:00 UTC


171733Z 1718/1818 16007KT P6SM FEW025 SCT250
FM172100 14008KT P6SM FEW040 BKN250
FM180700 13008KT P6SM FEW010 BKN250
FM181000 12006KT 5SM BR OVC007
FM181600 13007KT P6SM OVC012



MET'MAP, your aeronautical weather chart ! - Copyright ORBIFLY December 2007 - Disclaimer

ORBIFLY MET'MAP TEAM :

Programming & Development : Alexandra Zaïnal
Concept & original design : Baudouin d'Aumeries
Assistance for programming : Marc-Olivier Méhu
Technical & hardware support : Manuel Goepfert

Contact : metmap@orbifly.com




SOURCES & CREDITS :

   NOAA       Earth
Advisory